createdAt,value
2022-11-11T00:01:32.369Z,100925.75
2022-11-11T00:04:01.482Z,100920.56
2022-11-11T00:06:30.925Z,101041.84
2022-11-11T00:09:01.533Z,101016.66
2022-11-11T00:11:30.670Z,101016.69
2022-11-11T00:13:59.732Z,100914.53
2022-11-11T00:16:48.929Z,100875.91
2022-11-11T00:19:35.238Z,100984.41
2022-11-11T00:22:21.287Z,100998.44
2022-11-11T00:25:10.288Z,100977.47
2022-11-11T00:27:41.761Z,100890.13
2022-11-11T00:30:12.219Z,100907.59
2022-11-11T00:32:41.417Z,100925.91
2022-11-11T00:35:28.399Z,101002.84
2022-11-11T00:37:57.550Z,100928.50
2022-11-11T00:40:28.200Z,100929.50
2022-11-11T00:42:57.278Z,100972.19
2022-11-11T00:45:26.497Z,100884.88
2022-11-11T00:48:12.773Z,100990.66
2022-11-11T00:51:00.480Z,101002.78
2022-11-11T00:53:31.053Z,100913.63
2022-11-11T00:56:01.663Z,100861.31
2022-11-11T00:58:30.887Z,100842.94
2022-11-11T01:01:00.166Z,100868.00
2022-11-11T01:03:30.462Z,100886.47
2022-11-11T01:06:02.909Z,100899.59
2022-11-11T01:08:32.163Z,100924.91
2022-11-11T01:11:02.960Z,100995.69
2022-11-11T01:13:34.115Z,100995.69
2022-11-11T01:16:05.843Z,100880.38
2022-11-11T01:18:35.371Z,100934.50
2022-11-11T01:21:06.179Z,100964.22
2022-11-11T01:23:37.820Z,100989.63
2022-11-11T01:26:13.081Z,100981.81
2022-11-11T01:28:42.226Z,100989.63
2022-11-11T01:31:13.457Z,100935.53
2022-11-11T01:33:42.893Z,100951.25
2022-11-11T01:36:13.639Z,100897.94
2022-11-11T01:38:44.017Z,100914.53
2022-11-11T01:41:35.203Z,100993.97
2022-11-11T01:44:15.975Z,100936.22
2022-11-11T01:46:49.471Z,100978.38
2022-11-11T01:49:26.069Z,100978.38
2022-11-11T01:52:02.529Z,100918.72
2022-11-11T01:54:36.871Z,100985.28
2022-11-11T01:57:15.134Z,100960.00
2022-11-11T01:59:47.871Z,100931.09
2022-11-11T02:02:22.958Z,100848.25
2022-11-11T02:05:10.856Z,100860.44
2022-11-11T02:07:42.040Z,101003.53
2022-11-11T02:10:12.080Z,100955.69
2022-11-11T02:13:02.292Z,100979.31
2022-11-11T02:15:31.623Z,100951.38
2022-11-11T02:18:01.756Z,100877.25
2022-11-11T02:20:36.647Z,100859.00
2022-11-11T02:23:10.961Z,100975.25
2022-11-11T02:25:44.495Z,100893.81
2022-11-11T02:28:15.353Z,100858.19
2022-11-11T02:30:44.493Z,100957.88
2022-11-11T02:33:13.576Z,100980.66
2022-11-11T02:35:46.591Z,100937.06
2022-11-11T02:38:15.846Z,100942.34
2022-11-11T02:41:00.877Z,100967.75
2022-11-11T02:43:30.685Z,100898.69
2022-11-11T02:46:00.623Z,100969.59
2022-11-11T02:48:30.720Z,100837.91
2022-11-11T02:51:00.082Z,100910.28
2022-11-11T02:53:29.799Z,100973.22
2022-11-11T02:56:00.753Z,100885.09
2022-11-11T02:58:30.358Z,100968.94
2022-11-11T03:00:59.737Z,100877.22
2022-11-11T03:03:29.323Z,100859.03
2022-11-11T03:05:59.198Z,100972.50
2022-11-11T03:08:28.572Z,100854.72
2022-11-11T03:10:57.925Z,100945.56
2022-11-11T03:13:29.370Z,100873.19
2022-11-11T03:15:58.674Z,100966.59
2022-11-11T03:18:26.675Z,100951.84
2022-11-11T03:23:56.788Z,100958.94
2022-11-11T03:26:24.837Z,100968.59
2022-11-11T03:28:55.568Z,100972.16
2022-11-11T03:31:24.759Z,100878.00
2022-11-11T03:33:54.964Z,100889.41
2022-11-11T03:36:44.363Z,100960.06
2022-11-11T03:39:12.381Z,100842.41
2022-11-11T03:41:42.517Z,100964.44
2022-11-11T03:44:13.248Z,100930.41
2022-11-11T03:46:42.344Z,100927.84
2022-11-11T03:49:11.498Z,100950.50
2022-11-11T03:51:40.765Z,100834.47
2022-11-11T03:54:09.898Z,100925.13
2022-11-11T03:56:38.998Z,100861.56
2022-11-11T03:59:08.133Z,100947.84
2022-11-11T04:01:55.705Z,100921.69
2022-11-11T04:04:41.964Z,100939.97
2022-11-11T04:07:28.958Z,100939.09
2022-11-11T04:10:15.052Z,100931.25
2022-11-11T04:13:02.217Z,100906.84
2022-11-11T04:15:48.215Z,100844.94
2022-11-11T04:18:18.809Z,100821.47
2022-11-11T04:21:04.966Z,100854.56
2022-11-11T04:23:35.102Z,100838.84
2022-11-11T04:26:03.220Z,100939.09
2022-11-11T04:28:49.449Z,100946.84
2022-11-11T04:31:18.654Z,100838.75
2022-11-11T04:33:49.238Z,100949.47
2022-11-11T04:36:18.349Z,100933.81
2022-11-11T04:39:04.387Z,100831.78
2022-11-11T04:41:53.738Z,100825.63
2022-11-11T04:44:39.478Z,100950.38
2022-11-11T04:47:08.609Z,100830.00
2022-11-11T04:49:39.258Z,100875.31
2022-11-11T04:52:25.587Z,100940.75
2022-11-11T04:55:19.136Z,100888.53
2022-11-11T04:57:51.792Z,100854.56
2022-11-11T05:00:21.639Z,100867.63
2022-11-11T05:03:07.705Z,100838.00
2022-11-11T05:05:51.947Z,100959.16
2022-11-11T05:08:37.831Z,100833.69
2022-11-11T05:11:07.216Z,100853.75
2022-11-11T05:13:53.547Z,100960.09
2022-11-11T05:16:43.954Z,100825.91
2022-11-11T05:19:31.018Z,100906.94
2022-11-11T05:22:09.470Z,100960.09
2022-11-11T05:24:55.477Z,100961.84
2022-11-11T05:27:24.612Z,100959.22
2022-11-11T05:29:53.765Z,100866.00
2022-11-11T05:32:24.257Z,100968.84
2022-11-11T05:34:53.908Z,100885.16
2022-11-11T05:37:26.879Z,100819.84
2022-11-11T05:39:56.062Z,100951.41
2022-11-11T05:42:26.403Z,100905.25
2022-11-11T05:44:58.043Z,100947.94
2022-11-11T05:47:27.293Z,100891.31
2022-11-11T05:49:56.405Z,100849.50
2022-11-11T05:52:27.165Z,100946.16
2022-11-11T05:54:57.178Z,100785.94
2022-11-11T05:57:26.501Z,100844.25
2022-11-11T05:59:55.628Z,100952.16
2022-11-11T06:02:24.782Z,100945.16
2022-11-11T06:04:54.709Z,100846.75
2022-11-11T06:07:26.425Z,100954.72
2022-11-11T06:10:15.605Z,100851.97
2022-11-11T06:12:58.797Z,100889.47
2022-11-11T06:15:27.958Z,100858.94
2022-11-11T06:17:57.216Z,100893.75
2022-11-11T06:20:26.720Z,100957.28
2022-11-11T06:22:58.104Z,100872.84
2022-11-11T06:25:45.808Z,100944.22
2022-11-11T06:28:15.651Z,100945.16
2022-11-11T06:30:50.556Z,100916.47
2022-11-11T06:33:20.576Z,100859.03
2022-11-11T06:35:50.191Z,100804.19
2022-11-11T06:38:21.304Z,100784.19
2022-11-11T06:40:50.826Z,100846.84
2022-11-11T06:43:19.939Z,100950.47
2022-11-11T06:45:52.719Z,100914.75
2022-11-11T06:48:26.783Z,100946.94
2022-11-11T06:50:56.764Z,100824.19
2022-11-11T06:53:29.604Z,100847.66
2022-11-11T06:55:58.944Z,100860.72
2022-11-11T06:58:28.380Z,100904.25
2022-11-11T07:00:57.749Z,100802.44
2022-11-11T07:03:28.925Z,100789.41
2022-11-11T07:05:59.481Z,100927.78
2022-11-11T07:08:30.496Z,100860.72
2022-11-11T07:11:03.480Z,100940.78
2022-11-11T07:13:36.332Z,100907.66
2022-11-11T07:16:05.561Z,100902.47
2022-11-11T07:18:34.923Z,100898.13
2022-11-11T07:21:04.325Z,100970.44
2022-11-11T07:23:34.878Z,100944.28
2022-11-11T07:26:04.063Z,100940.78
2022-11-11T07:28:33.207Z,100847.63
2022-11-11T07:31:02.538Z,100904.09
2022-11-11T07:33:31.757Z,100839.63
2022-11-11T07:36:00.912Z,100930.94
2022-11-11T07:38:30.065Z,100937.84
2022-11-11T07:41:01.723Z,100957.88
2022-11-11T07:43:30.950Z,100904.59
2022-11-11T07:46:00.092Z,100927.16
2022-11-11T07:48:29.313Z,100846.38
2022-11-11T07:50:58.680Z,100931.72
2022-11-11T07:53:28.764Z,100848.34
2022-11-11T07:55:57.973Z,100783.22
2022-11-11T07:58:28.592Z,100932.13
2022-11-11T08:01:05.928Z,100940.03
2022-11-11T08:03:50.023Z,100847.75
2022-11-11T08:06:19.729Z,100894.75
2022-11-11T08:08:54.629Z,100829.47
2022-11-11T08:11:37.414Z,100876.47
2022-11-11T08:14:08.112Z,100880.00
2022-11-11T08:16:37.282Z,100943.53
2022-11-11T08:19:06.439Z,100876.47
2022-11-11T08:21:35.568Z,100846.88
2022-11-11T08:24:56.878Z,100940.91
2022-11-11T08:26:54.291Z,100908.72
2022-11-11T08:29:24.957Z,100905.25
2022-11-11T08:31:54.525Z,100815.53
2022-11-11T08:34:23.977Z,100839.91
2022-11-11T08:36:53.147Z,100929.63
2022-11-11T08:39:22.271Z,100828.59
2022-11-11T08:41:51.409Z,100840.78
2022-11-11T08:44:20.554Z,100861.69
2022-11-11T08:46:51.183Z,100726.78
2022-11-11T08:49:22.792Z,100856.47
2022-11-11T08:51:51.970Z,100879.09
2022-11-11T08:54:21.262Z,100923.53
2022-11-11T08:56:50.354Z,100947.03
2022-11-11T08:59:22.237Z,100928.75
2022-11-11T09:01:55.013Z,100825.97
2022-11-11T09:07:14.468Z,100861.66
2022-11-11T09:09:43.655Z,100910.44
2022-11-11T09:12:12.812Z,100778.88
2022-11-11T09:14:41.916Z,100819.81
2022-11-11T09:17:12.738Z,100904.31
2022-11-11T09:19:41.855Z,100831.13
2022-11-11T09:22:10.959Z,100768.44
2022-11-11T09:24:40.081Z,100920.00
2022-11-11T09:27:09.245Z,100899.06
2022-11-11T09:29:38.411Z,100765.72
2022-11-11T09:32:07.962Z,100898.19
2022-11-11T09:34:38.693Z,100836.28
2022-11-11T09:37:08.003Z,100882.50
2022-11-11T09:39:37.064Z,100832.75
2022-11-11T09:42:15.445Z,100868.47
2022-11-11T09:45:03.437Z,100819.66
2022-11-11T09:47:49.717Z,100896.34
2022-11-11T09:50:23.617Z,100858.78
2022-11-11T09:52:59.593Z,100962.53
2022-11-11T09:55:30.857Z,100950.34
2022-11-11T09:58:03.813Z,100926.81
2022-11-11T10:00:37.699Z,100934.59
2022-11-11T10:03:16.443Z,100909.28
2022-11-11T10:05:56.721Z,100919.69
2022-11-11T10:08:33.874Z,100908.34
2022-11-11T10:11:05.851Z,100923.13
2022-11-11T10:13:37.440Z,100955.31
2022-11-11T10:16:17.158Z,100959.66
2022-11-11T10:19:03.347Z,100955.25
2022-11-11T10:22:10.453Z,100970.00
2022-11-11T10:24:42.779Z,100953.44
2022-11-11T10:27:23.902Z,100907.81
2022-11-11T10:29:55.759Z,100879.09
2022-11-11T10:32:29.363Z,100793.38
2022-11-11T10:35:09.376Z,100971.44
2022-11-11T10:37:44.683Z,100892.81
2022-11-11T10:40:20.256Z,100954.78
2022-11-11T10:42:51.123Z,100950.41
2022-11-11T10:45:26.609Z,100968.72
2022-11-11T10:48:00.531Z,100967.00
2022-11-11T10:50:36.068Z,100962.69
2022-11-11T10:53:15.836Z,100947.03
2022-11-11T10:55:52.778Z,100950.56
2022-11-11T10:58:29.666Z,100956.69
2022-11-11T11:01:02.149Z,100974.19
2022-11-11T11:03:36.015Z,100926.19
2022-11-11T11:06:12.490Z,100963.72
2022-11-11T11:08:47.803Z,100957.63
2022-11-11T11:11:24.686Z,100914.00
2022-11-11T11:13:58.877Z,100954.97
2022-11-11T11:16:35.031Z,100979.44
2022-11-11T11:19:25.092Z,100935.78
2022-11-11T11:21:58.722Z,100958.50
2022-11-11T11:24:42.541Z,100951.53
2022-11-11T11:27:12.972Z,100938.41
2022-11-11T11:29:43.978Z,100953.28
2022-11-11T11:32:22.081Z,100961.09
2022-11-11T11:34:59.099Z,100982.06
2022-11-11T11:37:29.269Z,100981.19
2022-11-11T11:40:04.201Z,100970.72
2022-11-11T11:42:35.202Z,100984.66
2022-11-11T11:45:24.943Z,100983.78
2022-11-11T11:48:31.457Z,100952.31
2022-11-11T11:51:22.369Z,100881.59
2022-11-11T11:54:04.587Z,100991.56
2022-11-11T11:56:41.451Z,100988.13
2022-11-11T11:59:19.502Z,100974.16
2022-11-11T12:01:58.914Z,100954.09
2022-11-11T12:04:48.108Z,100984.66
2022-11-11T12:07:27.974Z,100973.31
2022-11-11T12:10:07.499Z,100948.00
2022-11-11T12:12:46.282Z,100936.63
2022-11-11T12:15:30.285Z,100874.66
2022-11-11T12:18:20.423Z,100942.72
2022-11-11T12:20:58.554Z,100985.47
2022-11-11T12:23:53.744Z,100990.69
2022-11-11T12:26:31.452Z,100985.50
2022-11-11T12:29:21.109Z,100956.69
2022-11-11T12:32:05.243Z,100892.97
2022-11-11T12:34:54.826Z,100958.47
2022-11-11T12:37:34.255Z,100974.19
2022-11-11T12:40:17.980Z,100970.69
2022-11-11T12:43:09.671Z,100961.09
2022-11-11T12:45:48.529Z,100967.22
2022-11-11T12:48:37.388Z,100946.25
2022-11-11T12:51:16.099Z,100965.44
2022-11-11T12:53:52.921Z,100968.09
2022-11-11T12:56:30.704Z,100924.44
2022-11-11T12:59:07.621Z,100978.53
2022-11-11T13:01:57.977Z,100967.25
2022-11-11T13:04:55.555Z,100964.59
2022-11-11T13:08:03.773Z,100950.63
2022-11-11T13:10:43.308Z,100958.47
2022-11-11T13:13:30.151Z,100961.94
2022-11-11T13:16:00.609Z,100955.84
2022-11-11T13:18:44.511Z,100960.16
2022-11-11T13:21:18.063Z,100946.19
2022-11-11T13:23:47.447Z,100958.41
2022-11-11T13:26:29.281Z,100886.72
2022-11-11T13:29:10.726Z,100961.84
2022-11-11T13:31:42.843Z,100910.34
2022-11-11T13:34:16.326Z,100907.69
2022-11-11T13:36:49.588Z,100970.47
2022-11-11T13:39:30.696Z,100851.75
2022-11-11T13:42:17.308Z,100923.44
2022-11-11T13:45:10.234Z,100889.38
2022-11-11T13:48:14.379Z,100896.19
2022-11-11T13:50:56.856Z,100889.41
2022-11-11T13:53:41.771Z,100955.63
2022-11-11T13:57:01.002Z,100837.00
2022-11-11T13:59:56.766Z,100794.31
2022-11-11T14:02:32.515Z,100938.25
2022-11-11T14:05:28.828Z,100929.53
2022-11-11T14:08:05.908Z,100933.88
2022-11-11T14:11:01.001Z,100807.31
2022-11-11T14:13:43.422Z,100911.19
2022-11-11T14:16:14.614Z,100889.31
2022-11-11T14:18:47.167Z,100913.69
2022-11-11T14:21:50.546Z,100917.13
2022-11-11T14:24:33.688Z,100917.09
2022-11-11T14:27:17.331Z,100890.00
2022-11-11T14:29:54.449Z,100896.09
2022-11-11T14:32:43.128Z,100931.91
2022-11-11T14:35:26.622Z,100906.59
2022-11-11T14:38:06.333Z,100941.50
2022-11-11T14:40:37.229Z,100943.25
2022-11-11T14:43:38.786Z,100891.00
2022-11-11T14:46:13.407Z,100893.63
2022-11-11T14:49:04.502Z,100793.31
2022-11-11T14:51:57.104Z,100930.25
2022-11-11T14:54:49.119Z,100941.56
2022-11-11T14:57:24.771Z,100897.97
2022-11-11T14:59:57.563Z,100954.59
2022-11-11T15:02:38.194Z,100929.44
2022-11-11T15:05:14.901Z,100808.06
2022-11-11T15:08:01.121Z,100918.09
2022-11-11T15:11:00.651Z,100944.25
2022-11-11T15:13:59.212Z,100964.22
2022-11-11T15:16:48.727Z,100889.34
2022-11-11T15:19:35.712Z,100935.56
2022-11-11T15:22:21.711Z,100928.53
2022-11-11T15:25:03.144Z,100911.84
2022-11-11T15:27:38.547Z,100911.78
2022-11-11T15:30:17.081Z,100930.09
2022-11-11T15:32:59.485Z,100907.31
2022-11-11T15:35:38.487Z,100944.75
2022-11-11T15:38:10.533Z,100938.72
2022-11-11T15:40:48.767Z,100880.22
2022-11-11T15:43:25.617Z,100944.03
2022-11-11T15:46:00.980Z,100732.91
2022-11-11T15:48:35.713Z,100905.78
2022-11-11T15:51:17.730Z,100890.25
2022-11-11T15:53:50.398Z,100890.28
2022-11-11T15:56:31.104Z,100883.31
2022-11-11T15:59:00.723Z,100937.44
2022-11-11T16:01:31.808Z,100835.38
2022-11-11T16:04:01.248Z,100921.00
2022-11-11T16:06:30.558Z,100926.22
2022-11-11T16:08:59.787Z,100929.69
2022-11-11T16:11:37.762Z,100922.78
2022-11-11T16:14:08.762Z,100845.16
2022-11-11T16:16:41.347Z,100917.59
2022-11-11T16:19:19.398Z,100924.56
2022-11-11T16:21:53.111Z,100921.88
2022-11-11T16:24:27.244Z,100871.41
2022-11-11T16:26:57.719Z,100830.34
2022-11-11T16:29:33.065Z,100910.72
2022-11-11T16:32:04.542Z,100881.09
2022-11-11T16:34:39.863Z,100838.31
2022-11-11T16:37:15.469Z,100860.13
2022-11-11T16:39:45.834Z,100822.63
2022-11-11T16:42:23.041Z,100881.94
2022-11-11T16:44:56.985Z,100921.13
2022-11-11T16:47:51.547Z,100822.66
2022-11-11T16:50:23.748Z,100808.69
2022-11-11T16:52:56.383Z,100824.44
2022-11-11T16:55:30.867Z,100894.09
2022-11-11T16:58:02.257Z,100774.69
2022-11-11T17:00:32.036Z,100760.69
2022-11-11T17:03:15.245Z,100880.19
2022-11-11T17:05:55.841Z,100858.44
2022-11-11T17:08:33.537Z,100787.00
2022-11-11T17:11:03.373Z,100823.50
2022-11-11T17:13:34.054Z,100871.50
2022-11-11T17:16:08.713Z,100784.41
2022-11-11T17:18:41.003Z,100808.69
2022-11-11T17:21:10.103Z,100875.91
2022-11-11T17:23:40.494Z,100769.41
2022-11-11T17:26:10.010Z,100780.78
2022-11-11T17:28:39.380Z,100742.38
2022-11-11T17:31:09.002Z,100873.28
2022-11-11T17:33:39.713Z,100875.03
2022-11-11T17:36:09.349Z,100799.16
2022-11-11T17:38:38.895Z,100834.94
2022-11-11T17:41:08.433Z,100849.78
2022-11-11T17:43:37.608Z,100777.44
2022-11-11T17:46:07.051Z,100874.16
2022-11-11T17:48:36.201Z,100868.91
2022-11-11T17:51:08.201Z,100866.28
2022-11-11T17:53:38.307Z,100864.50
2022-11-11T17:56:08.497Z,100887.06
2022-11-11T17:58:41.098Z,100782.53
2022-11-11T18:01:12.781Z,100703.19
2022-11-11T18:03:42.158Z,100781.59
2022-11-11T18:06:13.420Z,100759.81
2022-11-11T18:08:42.569Z,100771.91
2022-11-11T18:11:11.717Z,100814.75
2022-11-11T18:13:40.939Z,100758.09
2022-11-11T18:16:17.171Z,100770.28
2022-11-11T18:18:46.743Z,100863.59
2022-11-11T18:21:17.420Z,100860.09
2022-11-11T18:23:51.265Z,100792.03
2022-11-11T18:26:21.043Z,100858.34
2022-11-11T18:28:50.243Z,100798.19
2022-11-11T18:31:19.530Z,100798.94
2022-11-11T18:33:48.692Z,100818.28
2022-11-11T18:36:21.303Z,100777.22
2022-11-11T18:38:50.570Z,100853.19
2022-11-11T18:41:21.491Z,100762.47
2022-11-11T18:43:52.622Z,100789.44
2022-11-11T18:46:23.069Z,100764.16
2022-11-11T18:48:56.165Z,100819.13
2022-11-11T18:51:27.702Z,100774.72
2022-11-11T18:53:56.915Z,100786.84
2022-11-11T18:56:27.642Z,100764.25
2022-11-11T18:58:58.391Z,100780.00
2022-11-11T19:01:29.478Z,100760.84
2022-11-11T19:04:00.495Z,100767.81
2022-11-11T19:06:32.409Z,100802.72
2022-11-11T19:09:03.672Z,100745.16
2022-11-11T19:11:34.204Z,100769.63
2022-11-11T19:14:03.365Z,100726.06
2022-11-11T19:16:32.836Z,100743.47
2022-11-11T19:19:03.263Z,100830.63
2022-11-11T19:21:35.341Z,100732.22
2022-11-11T19:24:06.038Z,100821.09
2022-11-11T19:26:35.711Z,100783.50
2022-11-11T19:29:06.784Z,100735.72
2022-11-11T19:31:35.990Z,100725.22
2022-11-11T19:34:05.163Z,100760.94
2022-11-11T19:36:36.951Z,100712.13
2022-11-11T19:39:06.519Z,100732.25
2022-11-11T19:41:35.817Z,100716.50
2022-11-11T19:44:05.052Z,100786.34
2022-11-11T19:46:36.154Z,100720.13
2022-11-11T19:49:05.463Z,100807.28
2022-11-11T19:51:36.113Z,100808.16
2022-11-11T19:54:05.252Z,100729.69
2022-11-11T19:56:35.314Z,100740.94
2022-11-11T19:59:04.861Z,100811.59
2022-11-11T20:01:35.518Z,100686.16
2022-11-11T20:04:05.034Z,100801.19
2022-11-11T20:06:37.362Z,100726.19
2022-11-11T20:09:08.505Z,100804.66
2022-11-11T20:11:41.983Z,100673.94
2022-11-11T20:14:11.364Z,100795.13
2022-11-11T20:16:40.730Z,100790.81
2022-11-11T20:19:11.250Z,100793.41
2022-11-11T20:21:44.811Z,100686.28
2022-11-11T20:24:14.138Z,100792.53
2022-11-11T20:26:43.250Z,100789.06
2022-11-11T20:29:12.348Z,100713.28
2022-11-11T20:31:41.457Z,100699.34
2022-11-11T20:34:10.570Z,100698.47
2022-11-11T20:36:41.154Z,100779.50
2022-11-11T20:39:10.261Z,100777.78
2022-11-11T20:41:39.410Z,100776.91
2022-11-11T20:44:08.813Z,100708.97
2022-11-11T20:46:37.916Z,100760.41
2022-11-11T20:49:07.106Z,100763.88
2022-11-11T20:51:36.210Z,100762.13
2022-11-11T20:54:06.936Z,100772.47
2022-11-11T20:56:36.019Z,100663.66
2022-11-11T20:59:05.124Z,100698.56
2022-11-11T21:01:34.844Z,100687.25
2022-11-11T21:04:03.953Z,100641.06
2022-11-11T21:06:33.232Z,100746.50
2022-11-11T21:09:06.911Z,100678.56
2022-11-11T21:11:36.119Z,100699.47
2022-11-11T21:14:05.445Z,100657.72
2022-11-11T21:16:34.739Z,100680.34
2022-11-11T21:19:04.604Z,100672.47
2022-11-11T21:21:34.866Z,100675.13
2022-11-11T21:24:06.827Z,100658.59
2022-11-11T21:26:37.055Z,100642.06
2022-11-11T21:29:06.772Z,100742.19
2022-11-11T21:31:38.753Z,100616.84
2022-11-11T21:34:09.698Z,100694.34
2022-11-11T21:36:40.556Z,100724.84
2022-11-11T21:39:12.510Z,100678.69
2022-11-11T21:41:42.753Z,100726.63
2022-11-11T21:44:12.289Z,100673.50
2022-11-11T21:46:41.770Z,100689.16
2022-11-11T21:49:11.022Z,100722.25
2022-11-11T21:51:40.156Z,100699.63
2022-11-11T21:54:12.326Z,100634.31
2022-11-11T21:56:41.671Z,100625.63
2022-11-11T21:59:10.942Z,100627.34
2022-11-11T22:01:41.618Z,100656.09
2022-11-11T22:04:12.303Z,100643.97
2022-11-11T22:06:42.432Z,100702.22
2022-11-11T22:09:14.385Z,100618.66
2022-11-11T22:11:43.493Z,100585.56
2022-11-11T22:14:12.968Z,100596.94
2022-11-11T22:16:42.047Z,100697.88
2022-11-11T22:19:14.948Z,100604.75
2022-11-11T22:21:47.478Z,100586.41
2022-11-11T22:24:18.669Z,100697.84
2022-11-11T22:26:47.820Z,100698.72
2022-11-11T22:29:16.904Z,100629.06
2022-11-11T22:31:46.149Z,100693.47
2022-11-11T22:34:16.601Z,100667.34
2022-11-11T22:36:46.098Z,100673.41
2022-11-11T22:39:15.218Z,100609.03
2022-11-11T22:41:45.942Z,100666.50
2022-11-11T22:44:15.075Z,100696.97
2022-11-11T22:46:44.183Z,100649.06
2022-11-11T22:49:14.675Z,100694.38
2022-11-11T22:51:45.465Z,100622.97
2022-11-11T22:54:20.999Z,100595.16
2022-11-11T22:56:51.679Z,100620.38
2022-11-11T22:59:20.840Z,100611.63
2022-11-11T23:01:49.946Z,100581.19
2022-11-11T23:04:19.154Z,100660.44
2022-11-11T23:06:48.324Z,100681.34
2022-11-11T23:09:17.547Z,100685.69
2022-11-11T23:11:46.686Z,100630.00
2022-11-11T23:14:18.125Z,100586.47
2022-11-11T23:16:50.354Z,100648.28
2022-11-11T23:19:24.078Z,100649.16
2022-11-11T23:21:56.196Z,100667.47
2022-11-11T23:24:25.299Z,100635.25
2022-11-11T23:26:54.391Z,100576.09
2022-11-11T23:29:25.019Z,100670.06
2022-11-11T23:31:54.204Z,100663.97
2022-11-11T23:34:23.344Z,100573.44
2022-11-11T23:36:52.429Z,100640.47
2022-11-11T23:39:21.533Z,100584.72
2022-11-11T23:41:50.939Z,100603.91
2022-11-11T23:44:20.105Z,100635.25
2022-11-11T23:46:50.701Z,100661.34
2022-11-11T23:49:19.779Z,100587.38
2022-11-11T23:51:48.899Z,100582.16
2022-11-11T23:54:18.054Z,100658.69
2022-11-11T23:56:47.358Z,100660.47
2022-11-11T23:59:16.554Z,100559.47
